Time;durP1;ratioP1;P1;durP2;ratioP2;P2;SDS_P1;SDS_P2;PMS_P1;PMS_P2;Temp;Humidity;BMP_temperature;BMP_pressure;BME280_temperature;BME280_humidity;BME280_pressure;Samples;Min_cycle;Max_cycle;Signal;HPM_P1;HPM_P2
2021/04/20 00:00:22;;;;;;;6.73;5.10;;;;;;;;;;5121193;28;20225;-70
2021/04/20 00:02:49;;;;;;;9.20;5.43;;;;;;;;;;5121267;28;20205;-70
2021/04/20 00:05:19;;;;;;;7.83;5.37;;;;;;;;;;5121466;28;20315;-68
2021/04/20 00:07:46;;;;;;;7.97;6.37;;;;;;;;;;5121341;28;20201;-68
2021/04/20 00:10:14;;;;;;;7.90;5.50;;;;;;;;;;5121430;28;20228;-68
2021/04/20 00:12:42;;;;;;;8.93;5.70;;;;;;;;;;5121224;28;20237;-70
2021/04/20 00:15:10;;;;;;;9.10;6.00;;;;;;;;;;5119509;28;20263;-70
2021/04/20 00:17:37;;;;;;;8.03;5.90;;;;;;;;;;5121041;28;20638;-70
2021/04/20 00:20:06;;;;;;;7.77;5.73;;;;;;;;;;5120929;28;20224;-71
2021/04/20 00:22:33;;;;;;;6.93;5.87;;;;;;;;;;5120874;28;20293;-69
2021/04/20 00:25:00;;;;;;;6.27;5.63;;;;;;;;;;5120885;28;20274;-69
2021/04/20 00:27:27;;;;;;;6.70;5.33;;;;;;;;;;5120956;28;20243;-69
2021/04/20 00:29:55;;;;;;;7.87;5.90;;;;;;;;;;5120793;28;20239;-71
2021/04/20 00:32:22;;;;;;;10.03;6.00;;;;;;;;;;5120843;28;20236;-70
2021/04/20 00:34:49;;;;;;;9.73;6.40;;;;;;;;;;5120906;28;20220;-71
2021/04/20 00:37:16;;;;;;;7.40;6.03;;;;;;;;;;5120483;28;20255;-70
2021/04/20 00:39:43;;;;;;;6.53;5.87;;;;;;;;;;5120744;28;20267;-71
2021/04/20 00:42:10;;;;;;;8.63;6.40;;;;;;;;;;5120648;28;20240;-71
2021/04/20 00:44:37;;;;;;;8.67;5.43;;;;;;;;;;5120363;28;20307;-70
2021/04/20 00:47:05;;;;;;;8.67;6.10;;;;;;;;;;5120565;28;20232;-69
2021/04/20 00:49:32;;;;;;;7.33;6.27;;;;;;;;;;5120337;28;20200;-70
2021/04/20 00:51:59;;;;;;;9.73;6.60;;;;;;;;;;5120310;28;20476;-69
2021/04/20 00:54:27;;;;;;;7.93;6.40;;;;;;;;;;5120506;28;20251;-70
2021/04/20 00:56:54;;;;;;;7.67;6.03;;;;;;;;;;5120376;28;20236;-70
2021/04/20 00:59:21;;;;;;;9.77;5.93;;;;;;;;;;5119941;28;20204;-71
2021/04/20 01:01:48;;;;;;;7.93;6.13;;;;;;;;;;5120522;28;20204;-69
2021/04/20 01:04:17;;;;;;;6.63;5.73;;;;;;;;;;5120251;28;20209;-70
2021/04/20 01:06:45;;;;;;;6.43;5.13;;;;;;;;;;5120007;28;20240;-69
2021/04/20 01:09:12;;;;;;;6.77;5.70;;;;;;;;;;5120122;28;20287;-69
2021/04/20 01:11:40;;;;;;;7.97;5.40;;;;;;;;;;5119863;28;20279;-70
2021/04/20 01:14:07;;;;;;;7.27;5.70;;;;;;;;;;5120048;28;20288;-70
2021/04/20 01:16:35;;;;;;;6.93;6.13;;;;;;;;;;5119630;28;20566;-71
2021/04/20 01:19:03;;;;;;;7.47;5.77;;;;;;;;;;5119927;28;20209;-70
2021/04/20 01:21:33;;;;;;;6.10;5.50;;;;;;;;;;5119663;28;20755;-70
2021/04/20 01:24:03;;;;;;;8.07;6.10;;;;;;;;;;5119771;28;20296;-70
2021/04/20 01:26:32;;;;;;;7.77;6.23;;;;;;;;;;5119093;28;20663;-70
2021/04/20 01:28:59;;;;;;;8.40;6.07;;;;;;;;;;5119477;28;20212;-70
2021/04/20 01:31:27;;;;;;;6.53;5.40;;;;;;;;;;5119588;28;20205;-70
2021/04/20 01:33:54;;;;;;;7.90;5.43;;;;;;;;;;5119696;28;20273;-70
2021/04/20 01:36:22;;;;;;;7.87;5.87;;;;;;;;;;5119361;27;20244;-69
2021/04/20 01:38:50;;;;;;;7.47;5.07;;;;;;;;;;5119591;28;20287;-70
2021/04/20 01:41:18;;;;;;;6.97;5.83;;;;;;;;;;5119528;28;20225;-70
2021/04/20 01:43:47;;;;;;;5.97;5.20;;;;;;;;;;5119216;28;20244;-70
2021/04/20 01:46:14;;;;;;;7.00;5.87;;;;;;;;;;5119247;28;20256;-70
2021/04/20 01:48:42;;;;;;;6.23;5.60;;;;;;;;;;5119107;28;20640;-70
2021/04/20 01:51:09;;;;;;;6.53;5.83;;;;;;;;;;5119551;28;20216;-70
2021/04/20 01:53:37;;;;;;;6.30;5.67;;;;;;;;;;5119051;28;20283;-70
2021/04/20 01:56:05;;;;;;;6.47;5.30;;;;;;;;;;5119039;28;20779;-70
2021/04/20 01:58:33;;;;;;;9.23;6.60;;;;;;;;;;5118834;28;20236;-71
2021/04/20 02:01:04;;;;;;;8.90;5.90;;;;;;;;;;5118650;28;20747;-71
2021/04/20 02:03:31;;;;;;;7.23;5.50;;;;;;;;;;5119030;28;20737;-72
2021/04/20 02:05:58;;;;;;;7.90;6.10;;;;;;;;;;5119078;28;20289;-70
2021/04/20 02:08:26;;;;;;;7.53;6.07;;;;;;;;;;5118880;28;20747;-71
2021/04/20 02:10:53;;;;;;;6.73;5.97;;;;;;;;;;5119046;28;20201;-71
2021/04/20 02:13:21;;;;;;;8.23;5.90;;;;;;;;;;5119148;28;20219;-70
2021/04/20 02:15:48;;;;;;;9.00;6.47;;;;;;;;;;5118624;28;20675;-71
2021/04/20 02:18:17;;;;;;;8.57;6.13;;;;;;;;;;5119236;28;20236;-71
2021/04/20 02:20:44;;;;;;;6.67;6.00;;;;;;;;;;5118926;28;20267;-69
2021/04/20 02:23:11;;;;;;;6.47;5.63;;;;;;;;;;5119063;28;20232;-70
2021/04/20 02:25:39;;;;;;;6.60;5.50;;;;;;;;;;5118623;27;20244;-70
2021/04/20 02:28:06;;;;;;;6.80;5.53;;;;;;;;;;5118721;28;20209;-71
2021/04/20 02:30:33;;;;;;;7.07;6.10;;;;;;;;;;5118127;28;20828;-71
2021/04/20 02:33:00;;;;;;;8.30;5.83;;;;;;;;;;5118812;28;20235;-70
2021/04/20 02:35:29;;;;;;;8.73;6.20;;;;;;;;;;5118238;28;20225;-70
2021/04/20 02:37:56;;;;;;;9.97;6.43;;;;;;;;;;5117676;28;20614;-70
2021/04/20 02:40:24;;;;;;;10.93;6.70;;;;;;;;;;5118408;28;20764;-68
2021/04/20 02:42:52;;;;;;;10.10;6.80;;;;;;;;;;5118865;28;20643;-71
2021/04/20 02:45:20;;;;;;;9.00;6.40;;;;;;;;;;5117919;28;20229;-69
2021/04/20 02:47:47;;;;;;;12.90;7.77;;;;;;;;;;5118580;28;20205;-68
2021/04/20 02:50:16;;;;;;;10.90;7.60;;;;;;;;;;5118263;28;20240;-70
2021/04/20 02:52:46;;;;;;;8.47;7.00;;;;;;;;;;5118251;28;20635;-71
2021/04/20 02:55:13;;;;;;;9.30;6.60;;;;;;;;;;5118531;28;20256;-71
2021/04/20 02:57:42;;;;;;;11.43;7.20;;;;;;;;;;5118078;28;20704;-71
2021/04/20 03:00:11;;;;;;;10.07;7.13;;;;;;;;;;5117686;28;20656;-71
2021/04/20 03:02:39;;;;;;;9.90;7.30;;;;;;;;;;5118179;28;20253;-71
2021/04/20 03:05:06;;;;;;;14.27;7.13;;;;;;;;;;5118264;28;20224;-70
2021/04/20 03:07:34;;;;;;;13.00;7.50;;;;;;;;;;5118279;28;20243;-71
2021/04/20 03:10:03;;;;;;;11.43;7.07;;;;;;;;;;5118290;28;20225;-70
2021/04/20 03:12:30;;;;;;;11.20;7.77;;;;;;;;;;5118340;28;20208;-69
2021/04/20 03:14:58;;;;;;;14.40;7.20;;;;;;;;;;5117680;28;20256;-68
2021/04/20 03:17:25;;;;;;;10.97;7.30;;;;;;;;;;5118322;28;20240;-70
2021/04/20 03:19:52;;;;;;;10.53;7.20;;;;;;;;;;5118311;28;20731;-71
2021/04/20 03:22:20;;;;;;;10.10;6.83;;;;;;;;;;5118178;28;20616;-71
2021/04/20 03:25:04;;;;;;;10.90;7.70;;;;;;;;;;5118074;28;20311;-70
2021/04/20 03:27:32;;;;;;;11.30;6.60;;;;;;;;;;5107565;27;20589;-68
2021/04/20 03:29:59;;;;;;;9.97;6.87;;;;;;;;;;5117976;28;20254;-69
2021/04/20 03:32:27;;;;;;;9.20;7.13;;;;;;;;;;5117814;28;20539;-70
2021/04/20 03:34:56;;;;;;;10.90;6.73;;;;;;;;;;5118022;28;20270;-71
2021/04/20 03:37:26;;;;;;;8.23;6.90;;;;;;;;;;5117612;28;20288;-68
2021/04/20 03:39:56;;;;;;;12.20;7.67;;;;;;;;;;5118008;28;20292;-68
2021/04/20 03:42:25;;;;;;;10.77;7.57;;;;;;;;;;5117611;28;20240;-70
2021/04/20 03:44:54;;;;;;;14.57;7.63;;;;;;;;;;5117551;28;20264;-71
2021/04/20 03:47:22;;;;;;;10.10;7.20;;;;;;;;;;5117571;28;20724;-70
2021/04/20 03:49:50;;;;;;;11.00;7.20;;;;;;;;;;5120028;28;20747;-70
2021/04/20 03:52:19;;;;;;;9.73;7.97;;;;;;;;;;5121550;28;20675;-70
2021/04/20 03:54:47;;;;;;;10.07;7.43;;;;;;;;;;5121551;28;20232;-70
2021/04/20 03:57:15;;;;;;;12.00;8.47;;;;;;;;;;5121504;28;20288;-69
2021/04/20 03:59:43;;;;;;;12.37;8.53;;;;;;;;;;5121015;28;20292;-68
2021/04/20 04:02:11;;;;;;;11.20;9.10;;;;;;;;;;5121239;28;20684;-68
2021/04/20 04:04:39;;;;;;;14.80;8.40;;;;;;;;;;5121405;28;20225;-68
2021/04/20 04:07:06;;;;;;;13.40;8.43;;;;;;;;;;5121229;28;20624;-67
2021/04/20 04:09:33;;;;;;;14.07;8.47;;;;;;;;;;5121370;28;20264;-69
2021/04/20 04:12:02;;;;;;;12.27;8.60;;;;;;;;;;5121270;28;20236;-70
2021/04/20 04:14:30;;;;;;;10.23;7.87;;;;;;;;;;5120740;28;20248;-70
2021/04/20 04:17:00;;;;;;;11.00;8.60;;;;;;;;;;5121028;28;20635;-70
2021/04/20 04:19:29;;;;;;;14.10;7.87;;;;;;;;;;5120981;28;20675;-68
2021/04/20 04:21:59;;;;;;;11.30;7.90;;;;;;;;;;5121116;28;20311;-68
2021/04/20 04:24:29;;;;;;;15.63;9.27;;;;;;;;;;5121060;28;20268;-70
2021/04/20 04:26:58;;;;;;;14.13;9.10;;;;;;;;;;5120671;28;20281;-68
2021/04/20 04:29:26;;;;;;;11.20;7.70;;;;;;;;;;5120700;28;20287;-69
2021/04/20 04:31:53;;;;;;;12.30;8.70;;;;;;;;;;5121144;28;20232;-69
2021/04/20 04:34:21;;;;;;;11.77;7.80;;;;;;;;;;5120760;28;20232;-69
2021/04/20 04:36:49;;;;;;;9.37;7.13;;;;;;;;;;5120642;28;20751;-69
2021/04/20 04:39:17;;;;;;;11.43;8.13;;;;;;;;;;5120576;28;20272;-69
2021/04/20 04:41:44;;;;;;;14.07;7.73;;;;;;;;;;5120607;28;20233;-68
2021/04/20 04:44:12;;;;;;;17.07;8.90;;;;;;;;;;5120332;28;20232;-70
2021/04/20 04:46:40;;;;;;;10.40;8.00;;;;;;;;;;5120447;28;20212;-70
2021/04/20 04:49:08;;;;;;;11.30;8.53;;;;;;;;;;5120309;28;20201;-68
2021/04/20 04:51:37;;;;;;;12.10;7.47;;;;;;;;;;5120603;28;20235;-69
2021/04/20 04:54:06;;;;;;;9.50;7.37;;;;;;;;;;5120536;28;20240;-69
2021/04/20 04:56:34;;;;;;;11.63;8.10;;;;;;;;;;5120325;28;20299;-68
2021/04/20 04:59:01;;;;;;;12.47;7.87;;;;;;;;;;5120101;28;20288;-69
2021/04/20 05:01:29;;;;;;;11.13;7.27;;;;;;;;;;5119176;28;20268;-69
2021/04/20 05:04:05;;;;;;;10.40;7.53;;;;;;;;;;5120393;28;20230;-68
2021/04/20 05:06:33;;;;;;;8.13;7.07;;;;;;;;;;5120259;28;20209;-68
2021/04/20 05:09:00;;;;;;;11.10;7.60;;;;;;;;;;5120043;28;20624;-70
2021/04/20 05:11:29;;;;;;;13.17;9.33;;;;;;;;;;5119791;28;20326;-68
2021/04/20 05:13:56;;;;;;;11.10;7.77;;;;;;;;;;5120031;28;20209;-69
2021/04/20 05:16:23;;;;;;;12.37;8.03;;;;;;;;;;5119818;28;20288;-68
2021/04/20 05:18:50;;;;;;;12.37;7.37;;;;;;;;;;5120175;28;20205;-68
2021/04/20 05:21:17;;;;;;;15.27;7.13;;;;;;;;;;5119593;28;20252;-68
2021/04/20 05:23:44;;;;;;;9.73;7.53;;;;;;;;;;5120182;28;20205;-70
2021/04/20 05:26:11;;;;;;;12.07;7.73;;;;;;;;;;5119436;28;20275;-70
2021/04/20 05:28:40;;;;;;;11.07;8.00;;;;;;;;;;5119659;28;20727;-70
2021/04/20 05:31:08;;;;;;;12.23;7.50;;;;;;;;;;5119510;27;20325;-70
2021/04/20 05:33:36;;;;;;;10.83;7.53;;;;;;;;;;5119634;28;20306;-71
2021/04/20 05:36:06;;;;;;;12.17;8.27;;;;;;;;;;5119167;28;20645;-70
2021/04/20 05:38:33;;;;;;;14.10;8.33;;;;;;;;;;5119615;28;20200;-70
2021/04/20 05:41:02;;;;;;;14.17;7.50;;;;;;;;;;5119532;28;20256;-70
2021/04/20 05:43:29;;;;;;;10.73;7.63;;;;;;;;;;5119400;28;20240;-69
2021/04/20 05:45:58;;;;;;;13.00;8.10;;;;;;;;;;5119142;28;20225;-69
2021/04/20 05:48:25;;;;;;;9.90;7.30;;;;;;;;;;5119305;28;20240;-69
2021/04/20 05:50:52;;;;;;;14.73;7.43;;;;;;;;;;5119624;28;20196;-70
2021/04/20 05:53:22;;;;;;;13.10;7.43;;;;;;;;;;5119376;28;20236;-68
2021/04/20 05:55:49;;;;;;;13.70;7.10;;;;;;;;;;5118908;28;20672;-69
2021/04/20 05:58:17;;;;;;;11.90;7.73;;;;;;;;;;5119142;28;20211;-70
2021/04/20 06:00:44;;;;;;;14.87;7.90;;;;;;;;;;5118866;28;20235;-72
2021/04/20 06:03:12;;;;;;;15.43;9.03;;;;;;;;;;5118380;28;20574;-73
2021/04/20 06:05:39;;;;;;;12.47;8.03;;;;;;;;;;5119477;27;20703;-68
2021/04/20 06:08:06;;;;;;;15.47;9.27;;;;;;;;;;5120511;27;20682;-69
2021/04/20 06:10:33;;;;;;;11.03;7.77;;;;;;;;;;5116130;28;20280;-68
2021/04/20 06:13:00;;;;;;;15.03;7.50;;;;;;;;;;5118480;28;20656;-68
2021/04/20 06:15:27;;;;;;;8.93;7.30;;;;;;;;;;5118689;28;20341;-69
2021/04/20 06:17:56;;;;;;;13.53;8.13;;;;;;;;;;5119034;28;20207;-68
2021/04/20 06:20:24;;;;;;;12.27;7.00;;;;;;;;;;5118618;28;20610;-68
2021/04/20 06:22:53;;;;;;;13.87;7.47;;;;;;;;;;5118874;28;20240;-69
2021/04/20 06:25:20;;;;;;;10.80;7.87;;;;;;;;;;5118535;28;20276;-68
2021/04/20 06:27:48;;;;;;;9.73;7.13;;;;;;;;;;5118462;28;20592;-70
2021/04/20 06:30:16;;;;;;;34.57;8.83;;;;;;;;;;5118172;28;20224;-71
2021/04/20 06:32:44;;;;;;;13.47;7.93;;;;;;;;;;5136946;27;20282;-71
2021/04/20 06:35:12;;;;;;;10.43;7.97;;;;;;;;;;5129223;27;20256;-71
2021/04/20 06:37:41;;;;;;;11.13;7.83;;;;;;;;;;5118162;28;20232;-68
2021/04/20 06:40:09;;;;;;;13.07;8.20;;;;;;;;;;5118309;28;20209;-67
2021/04/20 06:42:40;;;;;;;11.10;7.87;;;;;;;;;;5107755;28;20661;-68
2021/04/20 06:45:11;;;;;;;9.90;7.90;;;;;;;;;;5105866;28;20290;-68
2021/04/20 06:47:41;;;;;;;11.97;7.67;;;;;;;;;;5108105;28;20201;-68
2021/04/20 06:50:09;;;;;;;12.10;8.00;;;;;;;;;;5118528;28;20209;-68
2021/04/20 06:52:40;;;;;;;10.17;7.57;;;;;;;;;;5118480;28;20243;-69
2021/04/20 06:55:10;;;;;;;13.17;9.07;;;;;;;;;;5118416;28;20251;-68
2021/04/20 06:57:44;;;;;;;13.00;9.10;;;;;;;;;;5118456;28;20205;-69
2021/04/20 07:00:14;;;;;;;13.60;10.20;;;;;;;;;;5117727;28;20211;-68
2021/04/20 07:02:50;;;;;;;16.00;9.43;;;;;;;;;;5111550;28;20206;-69
2021/04/20 07:05:19;;;;;;;14.57;10.10;;;;;;;;;;5116882;28;20247;-69
2021/04/20 07:07:53;;;;;;;14.50;9.60;;;;;;;;;;5118345;28;20247;-69
2021/04/20 07:10:25;;;;;;;13.47;9.30;;;;;;;;;;5118400;28;20200;-68
2021/04/20 07:12:54;;;;;;;17.57;10.30;;;;;;;;;;5117800;28;20243;-69
2021/04/20 07:15:24;;;;;;;12.80;8.93;;;;;;;;;;5117719;28;20251;-69
2021/04/20 07:18:00;;;;;;;16.50;10.93;;;;;;;;;;5118126;28;20291;-69
2021/04/20 07:20:42;;;;;;;14.37;10.40;;;;;;;;;;5118091;28;20287;-68
2021/04/20 07:23:19;;;;;;;17.07;11.07;;;;;;;;;;5117928;28;20641;-70
2021/04/20 07:25:51;;;;;;;17.30;11.27;;;;;;;;;;5121721;28;20289;-69
2021/04/20 07:28:22;;;;;;;22.03;13.83;;;;;;;;;;5122390;28;20205;-69
2021/04/20 07:30:51;;;;;;;15.30;10.80;;;;;;;;;;5122110;28;20288;-71
2021/04/20 07:33:31;;;;;;;17.73;11.57;;;;;;;;;;5122586;28;20201;-69
2021/04/20 07:36:01;;;;;;;16.80;10.83;;;;;;;;;;5121586;28;20587;-69
2021/04/20 07:38:32;;;;;;;15.30;10.53;;;;;;;;;;5122090;28;20204;-70
2021/04/20 07:41:05;;;;;;;15.90;11.03;;;;;;;;;;5121859;28;20233;-70
2021/04/20 07:43:48;;;;;;;14.97;11.03;;;;;;;;;;5121875;28;20292;-71
2021/04/20 07:46:18;;;;;;;20.40;11.57;;;;;;;;;;5121654;28;20700;-71
2021/04/20 07:48:54;;;;;;;16.17;11.03;;;;;;;;;;5121441;28;20204;-70
2021/04/20 07:51:26;;;;;;;18.70;11.77;;;;;;;;;;5121802;28;20211;-70
2021/04/20 07:53:59;;;;;;;17.43;11.13;;;;;;;;;;5121828;28;20269;-70
2021/04/20 07:56:31;;;;;;;16.60;10.83;;;;;;;;;;5121462;28;20243;-69
2021/04/20 07:59:00;;;;;;;17.73;11.30;;;;;;;;;;5121541;28;20212;-70
2021/04/20 08:01:34;;;;;;;13.33;10.23;;;;;;;;;;5121395;28;20315;-71
2021/04/20 08:04:09;;;;;;;14.73;10.40;;;;;;;;;;5121539;28;20240;-68
2021/04/20 08:06:38;;;;;;;14.77;10.57;;;;;;;;;;5121376;28;20214;-68
2021/04/20 08:09:09;;;;;;;15.63;10.90;;;;;;;;;;5121391;28;20207;-68
2021/04/20 08:11:46;;;;;;;13.40;9.53;;;;;;;;;;5120989;28;20575;-68
2021/04/20 08:14:16;;;;;;;14.37;9.90;;;;;;;;;;5121052;28;20201;-69
2021/04/20 08:16:46;;;;;;;14.43;10.07;;;;;;;;;;5121367;28;20239;-69
2021/04/20 08:19:16;;;;;;;19.20;11.80;;;;;;;;;;5121983;28;20208;-69
2021/04/20 08:21:44;;;;;;;13.10;9.70;;;;;;;;;;5121119;28;20315;-70
2021/04/20 08:24:14;;;;;;;16.07;9.80;;;;;;;;;;5120938;28;20258;-68
2021/04/20 08:26:44;;;;;;;16.43;9.43;;;;;;;;;;5112108;28;20233;-71
2021/04/20 08:29:17;;;;;;;11.10;9.10;;;;;;;;;;5120122;28;20204;-71
2021/04/20 08:31:48;;;;;;;14.13;9.20;;;;;;;;;;5120350;28;20684;-70
2021/04/20 08:34:18;;;;;;;16.20;9.53;;;;;;;;;;5120763;28;20204;-68
2021/04/20 08:36:52;;;;;;;14.17;9.77;;;;;;;;;;5119289;28;20197;-68
2021/04/20 08:39:21;;;;;;;14.23;9.70;;;;;;;;;;5120545;28;20216;-68
2021/04/20 08:41:54;;;;;;;14.63;8.87;;;;;;;;;;5120307;28;20726;-68
2021/04/20 08:44:26;;;;;;;11.80;8.90;;;;;;;;;;5120170;28;20304;-68
2021/04/20 08:46:59;;;;;;;14.20;8.07;;;;;;;;;;5120201;28;20679;-68
2021/04/20 08:49:33;;;;;;;10.57;8.13;;;;;;;;;;5120773;28;20216;-69
2021/04/20 08:52:03;;;;;;;10.47;7.80;;;;;;;;;;5119424;28;20568;-68
2021/04/20 08:54:39;;;;;;;9.77;7.57;;;;;;;;;;5118700;28;20315;-68
2021/04/20 08:57:19;;;;;;;11.17;7.37;;;;;;;;;;5118455;28;20235;-68
2021/04/20 09:00:10;;;;;;;9.23;7.17;;;;;;;;;;5118195;28;20292;-68
2021/04/20 09:02:48;;;;;;;9.57;7.07;;;;;;;;;;5118456;28;20224;-69
2021/04/20 09:05:25;;;;;;;9.43;6.87;;;;;;;;;;5118177;28;20225;-68
2021/04/20 09:07:55;;;;;;;10.33;7.47;;;;;;;;;;5119591;28;20287;-67
2021/04/20 09:10:27;;;;;;;13.63;7.53;;;;;;;;;;5120128;28;20291;-68
2021/04/20 09:12:59;;;;;;;11.57;8.27;;;;;;;;;;5120030;28;20283;-69
2021/04/20 09:15:26;;;;;;;15.53;8.00;;;;;;;;;;5119568;28;20260;-69
2021/04/20 09:17:57;;;;;;;10.33;8.03;;;;;;;;;;5120270;28;20687;-70
2021/04/20 09:20:45;;;;;;;9.40;7.67;;;;;;;;;;5120017;28;20242;-69
2021/04/20 09:23:17;;;;;;;12.83;8.23;;;;;;;;;;5120182;28;20240;-69
2021/04/20 09:25:50;;;;;;;12.87;8.87;;;;;;;;;;5119592;28;20283;-70
2021/04/20 09:28:20;;;;;;;10.37;8.10;;;;;;;;;;5119713;28;20663;-69
2021/04/20 09:30:50;;;;;;;14.17;8.53;;;;;;;;;;5119516;28;20272;-69
2021/04/20 09:33:19;;;;;;;10.53;7.77;;;;;;;;;;5119643;28;20259;-69
2021/04/20 09:35:48;;;;;;;11.13;8.47;;;;;;;;;;5119201;28;20225;-67
2021/04/20 09:38:15;;;;;;;14.27;9.00;;;;;;;;;;5119813;28;20287;-70
2021/04/20 09:40:43;;;;;;;18.53;12.10;;;;;;;;;;5119476;28;20295;-68
2021/04/20 09:43:18;;;;;;;14.10;10.03;;;;;;;;;;5119476;28;20243;-68
2021/04/20 09:45:49;;;;;;;13.10;9.57;;;;;;;;;;5119098;28;20267;-69
2021/04/20 09:48:20;;;;;;;10.03;8.40;;;;;;;;;;5118881;28;20287;-68
2021/04/20 09:50:53;;;;;;;11.83;8.60;;;;;;;;;;5118975;28;20205;-66
2021/04/20 09:53:24;;;;;;;12.90;8.30;;;;;;;;;;5116181;28;20234;-67
2021/04/20 09:55:56;;;;;;;9.60;7.97;;;;;;;;;;5119003;28;20312;-66
2021/04/20 09:58:23;;;;;;;9.67;7.70;;;;;;;;;;5119082;28;20239;-67
2021/04/20 10:00:51;;;;;;;9.83;7.40;;;;;;;;;;5110208;28;20398;-70
2021/04/20 10:03:24;;;;;;;12.67;7.40;;;;;;;;;;5102680;28;20281;-69
2021/04/20 10:06:09;;;;;;;7.77;6.43;;;;;;;;;;5098346;28;20217;-69
2021/04/20 10:08:40;;;;;;;8.77;7.37;;;;;;;;;;5095566;28;20202;-68
2021/04/20 10:11:13;;;;;;;8.47;6.80;;;;;;;;;;5099587;28;20257;-69
2021/04/20 10:13:53;;;;;;;9.50;6.57;;;;;;;;;;5100072;28;20252;-68
2021/04/20 10:16:22;;;;;;;14.80;7.47;;;;;;;;;;5106315;28;20299;-70
2021/04/20 10:18:57;;;;;;;9.40;7.90;;;;;;;;;;5117048;27;20333;-71
2021/04/20 10:21:28;;;;;;;7.87;7.03;;;;;;;;;;5119704;27;20287;-69
2021/04/20 10:24:01;;;;;;;8.10;6.97;;;;;;;;;;5118376;28;20237;-69
2021/04/20 10:26:31;;;;;;;9.60;7.23;;;;;;;;;;5115742;28;20324;-69
2021/04/20 10:29:02;;;;;;;7.67;6.50;;;;;;;;;;5115381;28;20269;-69
2021/04/20 10:31:32;;;;;;;9.50;7.20;;;;;;;;;;5104987;28;20276;-72
2021/04/20 10:34:00;;;;;;;10.00;6.93;;;;;;;;;;5109554;27;20664;-69
2021/04/20 10:36:27;;;;;;;8.10;6.20;;;;;;;;;;5118337;28;20204;-70
2021/04/20 10:38:57;;;;;;;6.53;5.90;;;;;;;;;;5118563;28;20291;-69
2021/04/20 10:41:25;;;;;;;7.10;6.10;;;;;;;;;;5118122;28;20221;-68
2021/04/20 10:43:53;;;;;;;8.00;6.57;;;;;;;;;;5118160;28;20291;-69
2021/04/20 10:46:24;;;;;;;7.77;5.73;;;;;;;;;;5118121;28;20288;-69
2021/04/20 10:48:54;;;;;;;11.27;6.03;;;;;;;;;;5118430;28;20284;-69
2021/04/20 10:51:28;;;;;;;7.87;5.77;;;;;;;;;;5118239;28;20713;-69
2021/04/20 10:53:56;;;;;;;6.87;6.00;;;;;;;;;;5118382;28;20283;-67
2021/04/20 10:56:23;;;;;;;9.07;6.70;;;;;;;;;;5114828;28;20297;-68
2021/04/20 10:58:54;;;;;;;7.73;6.07;;;;;;;;;;5101856;28;20205;-67
2021/04/20 11:01:22;;;;;;;5.80;5.20;;;;;;;;;;5106434;28;20281;-69
2021/04/20 11:03:50;;;;;;;5.53;5.03;;;;;;;;;;5103941;28;20201;-70
2021/04/20 11:06:36;;;;;;;8.20;5.53;;;;;;;;;;5104800;28;20588;-69
2021/04/20 11:09:04;;;;;;;6.70;4.90;;;;;;;;;;5106899;28;20221;-69
2021/04/20 11:11:31;;;;;;;5.90;4.47;;;;;;;;;;5103632;28;20205;-68
2021/04/20 11:13:58;;;;;;;5.70;5.03;;;;;;;;;;5105120;28;20699;-69
2021/04/20 11:16:31;;;;;;;6.23;4.90;;;;;;;;;;5105475;28;20260;-70
2021/04/20 11:19:02;;;;;;;5.60;4.97;;;;;;;;;;5104682;28;20283;-69
2021/04/20 11:21:29;;;;;;;5.57;4.93;;;;;;;;;;5102771;28;20571;-69
2021/04/20 11:23:58;;;;;;;6.67;5.13;;;;;;;;;;5105483;28;20304;-70
2021/04/20 11:26:30;;;;;;;10.60;8.33;;;;;;;;;;5103965;28;20260;-71
2021/04/20 11:28:59;;;;;;;6.60;5.90;;;;;;;;;;5115925;28;20224;-70
2021/04/20 11:31:29;;;;;;;8.23;4.90;;;;;;;;;;5118112;28;20240;-69
2021/04/20 11:33:58;;;;;;;5.83;5.03;;;;;;;;;;5117732;28;20215;-69
2021/04/20 11:36:26;;;;;;;6.33;4.87;;;;;;;;;;5117864;28;20256;-69
2021/04/20 11:38:56;;;;;;;7.30;4.50;;;;;;;;;;5117683;28;20305;-70
2021/04/20 11:41:27;;;;;;;8.90;4.67;;;;;;;;;;5117510;28;20674;-69
2021/04/20 11:43:57;;;;;;;4.90;4.40;;;;;;;;;;5117555;28;20205;-70
2021/04/20 11:46:24;;;;;;;5.17;4.23;;;;;;;;;;5117707;28;20732;-70
2021/04/20 11:48:53;;;;;;;5.03;4.10;;;;;;;;;;5115693;28;20204;-70
2021/04/20 11:51:20;;;;;;;6.60;4.80;;;;;;;;;;5107453;28;20199;-70
2021/04/20 11:53:49;;;;;;;7.70;4.80;;;;;;;;;;5107806;28;21764;-70
2021/04/20 11:56:16;;;;;;;6.33;4.30;;;;;;;;;;5104721;28;20775;-70
2021/04/20 11:58:44;;;;;;;7.47;5.27;;;;;;;;;;5111756;28;21028;-71
2021/04/20 12:01:14;;;;;;;6.07;4.60;;;;;;;;;;5116984;27;20224;-71
2021/04/20 12:03:49;;;;;;;4.47;3.87;;;;;;;;;;5107683;28;20562;-70
2021/04/20 12:06:16;;;;;;;6.07;3.90;;;;;;;;;;5111778;28;20221;-70
2021/04/20 12:08:44;;;;;;;4.67;3.60;;;;;;;;;;5103523;28;20295;-70
2021/04/20 12:11:12;;;;;;;4.80;3.90;;;;;;;;;;5119605;28;20213;-70
2021/04/20 12:13:40;;;;;;;4.47;3.77;;;;;;;;;;5120936;28;20236;-70
2021/04/20 12:16:08;;;;;;;3.70;3.40;;;;;;;;;;5120687;28;20787;-70
2021/04/20 12:18:36;;;;;;;5.20;3.63;;;;;;;;;;5121159;28;20327;-70
2021/04/20 12:21:06;;;;;;;3.70;3.30;;;;;;;;;;5120806;28;20208;-70
2021/04/20 12:23:35;;;;;;;6.10;4.03;;;;;;;;;;5121142;27;20209;-70
2021/04/20 12:26:02;;;;;;;5.80;4.13;;;;;;;;;;5120451;28;20267;-70
2021/04/20 12:28:30;;;;;;;4.17;3.30;;;;;;;;;;5120661;28;20291;-70
2021/04/20 12:30:57;;;;;;;4.33;3.93;;;;;;;;;;5120756;28;20293;-70
2021/04/20 12:33:28;;;;;;;4.77;3.10;;;;;;;;;;5120722;28;20201;-70
2021/04/20 12:35:57;;;;;;;4.53;3.50;;;;;;;;;;5120384;28;20299;-70
2021/04/20 12:38:30;;;;;;;3.57;3.10;;;;;;;;;;5119526;28;20272;-70
2021/04/20 12:40:59;;;;;;;5.23;3.80;;;;;;;;;;5118621;28;20638;-70
2021/04/20 12:43:27;;;;;;;4.50;3.47;;;;;;;;;;5118751;28;20316;-70
2021/04/20 12:46:03;;;;;;;5.73;3.30;;;;;;;;;;5118200;28;20232;-70
2021/04/20 12:48:31;;;;;;;5.20;3.20;;;;;;;;;;5118853;28;20201;-70
2021/04/20 12:50:59;;;;;;;3.83;3.43;;;;;;;;;;5119262;28;20204;-70
2021/04/20 12:53:28;;;;;;;5.17;3.23;;;;;;;;;;5120043;28;20284;-70
2021/04/20 12:55:55;;;;;;;2.90;2.70;;;;;;;;;;5120243;28;20231;-70
2021/04/20 12:58:24;;;;;;;3.37;3.07;;;;;;;;;;5120292;28;20299;-70
2021/04/20 13:00:57;;;;;;;6.43;3.27;;;;;;;;;;5121969;27;20264;-70
2021/04/20 13:03:24;;;;;;;3.20;2.90;;;;;;;;;;5140814;27;20266;-70
2021/04/20 13:05:53;;;;;;;4.13;2.73;;;;;;;;;;5140691;27;20719;-69
2021/04/20 13:08:22;;;;;;;3.97;2.80;;;;;;;;;;5140639;27;20208;-70
2021/04/20 13:10:53;;;;;;;2.90;2.70;;;;;;;;;;5140600;27;20208;-69
2021/04/20 13:13:23;;;;;;;3.37;2.87;;;;;;;;;;5140480;27;20316;-70
2021/04/20 13:15:50;;;;;;;5.97;3.33;;;;;;;;;;5140390;27;20232;-70
2021/04/20 13:18:18;;;;;;;3.10;2.40;;;;;;;;;;5140760;27;20207;-70
2021/04/20 13:20:46;;;;;;;3.57;2.90;;;;;;;;;;5140383;27;20600;-70
2021/04/20 13:23:24;;;;;;;2.90;2.60;;;;;;;;;;5139904;27;20227;-70
2021/04/20 13:25:52;;;;;;;2.40;2.20;;;;;;;;;;5140017;27;20281;-70
2021/04/20 13:28:29;;;;;;;2.83;2.53;;;;;;;;;;5140193;27;20639;-70
2021/04/20 13:30:57;;;;;;;2.77;2.00;;;;;;;;;;5140317;27;20214;-70
2021/04/20 13:33:26;;;;;;;4.77;2.30;;;;;;;;;;5140474;27;20203;-70
2021/04/20 13:35:55;;;;;;;5.13;2.80;;;;;;;;;;5124661;27;20219;-70
2021/04/20 13:38:23;;;;;;;4.30;2.90;;;;;;;;;;5120104;28;20212;-70
2021/04/20 13:40:50;;;;;;;3.10;2.20;;;;;;;;;;5119477;28;20642;-70
2021/04/20 13:43:18;;;;;;;5.03;2.07;;;;;;;;;;5119269;28;20565;-70
2021/04/20 13:45:48;;;;;;;2.63;2.43;;;;;;;;;;5119172;28;20226;-70
2021/04/20 13:48:20;;;;;;;2.73;2.17;;;;;;;;;;5119515;28;20687;-70
2021/04/20 13:50:48;;;;;;;3.63;2.03;;;;;;;;;;5119276;28;20209;-71
2021/04/20 13:53:17;;;;;;;2.37;2.17;;;;;;;;;;5119423;28;20273;-70
2021/04/20 13:55:45;;;;;;;2.20;1.70;;;;;;;;;;5119143;28;20779;-70
2021/04/20 13:58:14;;;;;;;2.03;1.90;;;;;;;;;;5119210;28;20204;-70
2021/04/20 14:00:42;;;;;;;1.87;1.77;;;;;;;;;;5119109;28;20204;-70
2021/04/20 14:03:15;;;;;;;2.20;2.00;;;;;;;;;;5118872;28;20225;-70
2021/04/20 14:05:42;;;;;;;2.40;2.13;;;;;;;;;;5118982;28;20225;-70
2021/04/20 14:08:12;;;;;;;2.83;2.30;;;;;;;;;;5119131;28;20209;-70
2021/04/20 14:10:39;;;;;;;2.23;2.10;;;;;;;;;;5118936;28;20299;-70
2021/04/20 14:13:10;;;;;;;2.87;2.10;;;;;;;;;;5118879;28;20205;-70
2021/04/20 14:15:38;;;;;;;2.73;2.37;;;;;;;;;;5118755;28;20311;-70
2021/04/20 14:18:11;;;;;;;2.40;2.20;;;;;;;;;;5118689;28;20211;-70
2021/04/20 14:20:39;;;;;;;2.77;2.20;;;;;;;;;;5118730;28;20574;-70
2021/04/20 14:23:06;;;;;;;2.00;1.90;;;;;;;;;;5118551;28;20227;-70
2021/04/20 14:25:35;;;;;;;2.13;2.03;;;;;;;;;;5118609;28;20243;-70
2021/04/20 14:28:03;;;;;;;2.50;2.30;;;;;;;;;;5118459;28;20205;-70
2021/04/20 14:30:31;;;;;;;6.00;2.57;;;;;;;;;;5118526;28;20205;-70
2021/04/20 14:32:58;;;;;;;4.03;2.13;;;;;;;;;;5118299;28;20239;-70
2021/04/20 14:35:27;;;;;;;3.43;2.73;;;;;;;;;;5118145;28;20378;-70
2021/04/20 14:37:54;;;;;;;2.57;2.20;;;;;;;;;;5105247;28;20292;-70
2021/04/20 14:40:21;;;;;;;3.20;2.10;;;;;;;;;;5118608;28;20261;-70
2021/04/20 14:42:49;;;;;;;4.50;2.40;;;;;;;;;;5118477;28;20312;-70
2021/04/20 14:45:21;;;;;;;3.70;2.40;;;;;;;;;;5118145;28;20231;-70
2021/04/20 14:47:49;;;;;;;2.60;2.40;;;;;;;;;;5118289;27;20723;-70